sensor_id;sensor_type;location;lat;lon;timestamp;P1;durP1;ratioP1;P2;durP2;ratioP2
19889;SDS011;10107;51.198;6.824;2022-07-29T00:03:15;2.95;;;1.67;;
19889;SDS011;10107;51.198;6.824;2022-07-29T00:07:17;2.45;;;1.50;;
19889;SDS011;10107;51.198;6.824;2022-07-29T00:11:19;2.25;;;1.40;;
19889;SDS011;10107;51.198;6.824;2022-07-29T00:15:22;2.58;;;1.40;;
19889;SDS011;10107;51.198;6.824;2022-07-29T00:19:24;2.08;;;1.33;;
19889;SDS011;10107;51.198;6.824;2022-07-29T00:23:26;4.63;;;1.70;;
19889;SDS011;10107;51.198;6.824;2022-07-29T00:27:28;3.53;;;1.45;;
19889;SDS011;10107;51.198;6.824;2022-07-29T00:31:31;3.75;;;1.60;;
19889;SDS011;10107;51.198;6.824;2022-07-29T00:35:33;4.35;;;1.42;;
19889;SDS011;10107;51.198;6.824;2022-07-29T00:39:47;2.15;;;1.48;;
19889;SDS011;10107;51.198;6.824;2022-07-29T00:43:49;4.55;;;1.70;;
19889;SDS011;10107;51.198;6.824;2022-07-29T00:47:52;6.30;;;1.40;;
19889;SDS011;10107;51.198;6.824;2022-07-29T00:51:54;2.88;;;1.65;;
19889;SDS011;10107;51.198;6.824;2022-07-29T00:55:57;2.65;;;1.33;;
19889;SDS011;10107;51.198;6.824;2022-07-29T00:59:59;5.25;;;1.58;;
19889;SDS011;10107;51.198;6.824;2022-07-29T01:04:02;2.38;;;1.23;;
19889;SDS011;10107;51.198;6.824;2022-07-29T01:08:04;2.67;;;1.35;;
19889;SDS011;10107;51.198;6.824;2022-07-29T01:12:07;4.35;;;1.35;;
19889;SDS011;10107;51.198;6.824;2022-07-29T01:16:20;2.20;;;1.30;;
19889;SDS011;10107;51.198;6.824;2022-07-29T01:20:29;2.10;;;1.20;;
19889;SDS011;10107;51.198;6.824;2022-07-29T01:24:46;3.55;;;1.85;;
19889;SDS011;10107;51.198;6.824;2022-07-29T01:29:07;1.92;;;1.30;;
19889;SDS011;10107;51.198;6.824;2022-07-29T01:33:15;2.70;;;1.48;;
19889;SDS011;10107;51.198;6.824;2022-07-29T01:37:34;4.03;;;1.88;;
19889;SDS011;10107;51.198;6.824;2022-07-29T01:41:43;4.05;;;2.05;;
19889;SDS011;10107;51.198;6.824;2022-07-29T01:45:53;5.93;;;2.50;;
19889;SDS011;10107;51.198;6.824;2022-07-29T01:50:00;6.82;;;2.47;;
19889;SDS011;10107;51.198;6.824;2022-07-29T01:54:08;5.50;;;2.20;;
19889;SDS011;10107;51.198;6.824;2022-07-29T01:58:15;4.60;;;1.95;;
19889;SDS011;10107;51.198;6.824;2022-07-29T02:02:21;2.88;;;1.65;;
19889;SDS011;10107;51.198;6.824;2022-07-29T02:06:24;2.92;;;1.45;;
19889;SDS011;10107;51.198;6.824;2022-07-29T02:10:28;1.87;;;1.23;;
19889;SDS011;10107;51.198;6.824;2022-07-29T02:14:36;3.00;;;1.40;;
19889;SDS011;10107;51.198;6.824;2022-07-29T02:18:45;2.10;;;1.45;;
19889;SDS011;10107;51.198;6.824;2022-07-29T02:22:51;2.58;;;1.17;;
19889;SDS011;10107;51.198;6.824;2022-07-29T02:26:56;4.35;;;1.40;;
19889;SDS011;10107;51.198;6.824;2022-07-29T02:31:02;1.88;;;1.30;;
19889;SDS011;10107;51.198;6.824;2022-07-29T02:35:09;1.77;;;1.20;;
19889;SDS011;10107;51.198;6.824;2022-07-29T02:39:13;1.45;;;1.20;;
19889;SDS011;10107;51.198;6.824;2022-07-29T02:43:16;4.03;;;1.80;;
19889;SDS011;10107;51.198;6.824;2022-07-29T02:47:20;4.18;;;1.83;;
19889;SDS011;10107;51.198;6.824;2022-07-29T02:51:31;5.07;;;1.95;;
19889;SDS011;10107;51.198;6.824;2022-07-29T02:55:40;3.97;;;2.03;;
19889;SDS011;10107;51.198;6.824;2022-07-29T02:59:45;3.08;;;2.05;;
19889;SDS011;10107;51.198;6.824;2022-07-29T03:03:52;4.43;;;2.42;;
19889;SDS011;10107;51.198;6.824;2022-07-29T03:07:57;4.15;;;2.30;;
19889;SDS011;10107;51.198;6.824;2022-07-29T03:12:01;3.92;;;2.20;;
19889;SDS011;10107;51.198;6.824;2022-07-29T03:16:05;3.83;;;2.20;;
19889;SDS011;10107;51.198;6.824;2022-07-29T03:20:08;4.72;;;1.98;;
19889;SDS011;10107;51.198;6.824;2022-07-29T03:24:24;3.10;;;1.73;;
19889;SDS011;10107;51.198;6.824;2022-07-29T03:28:30;7.13;;;2.10;;
19889;SDS011;10107;51.198;6.824;2022-07-29T03:32:32;3.90;;;1.80;;
19889;SDS011;10107;51.198;6.824;2022-07-29T03:36:34;3.47;;;1.80;;
19889;SDS011;10107;51.198;6.824;2022-07-29T03:40:38;4.68;;;1.77;;
19889;SDS011;10107;51.198;6.824;2022-07-29T03:44:45;4.03;;;2.05;;
19889;SDS011;10107;51.198;6.824;2022-07-29T03:48:50;2.28;;;1.73;;
19889;SDS011;10107;51.198;6.824;2022-07-29T03:52:56;3.83;;;1.90;;
19889;SDS011;10107;51.198;6.824;2022-07-29T03:57:01;3.97;;;1.90;;
19889;SDS011;10107;51.198;6.824;2022-07-29T04:01:03;5.40;;;2.53;;
19889;SDS011;10107;51.198;6.824;2022-07-29T04:05:05;3.50;;;2.50;;
19889;SDS011;10107;51.198;6.824;2022-07-29T04:09:13;4.90;;;2.53;;
19889;SDS011;10107;51.198;6.824;2022-07-29T04:13:16;6.57;;;3.10;;
19889;SDS011;10107;51.198;6.824;2022-07-29T04:17:18;3.92;;;2.25;;
19889;SDS011;10107;51.198;6.824;2022-07-29T04:21:20;6.28;;;2.70;;
19889;SDS011;10107;51.198;6.824;2022-07-29T04:25:22;4.35;;;1.98;;
19889;SDS011;10107;51.198;6.824;2022-07-29T04:29:25;3.55;;;2.35;;
19889;SDS011;10107;51.198;6.824;2022-07-29T04:33:27;3.03;;;2.13;;
19889;SDS011;10107;51.198;6.824;2022-07-29T04:37:29;4.95;;;2.63;;
19889;SDS011;10107;51.198;6.824;2022-07-29T04:41:31;5.50;;;2.58;;
19889;SDS011;10107;51.198;6.824;2022-07-29T04:45:34;3.83;;;2.58;;
19889;SDS011;10107;51.198;6.824;2022-07-29T04:49:37;6.90;;;2.07;;
19889;SDS011;10107;51.198;6.824;2022-07-29T04:53:39;2.67;;;1.90;;
19889;SDS011;10107;51.198;6.824;2022-07-29T04:57:41;4.50;;;2.17;;
19889;SDS011;10107;51.198;6.824;2022-07-29T05:01:44;6.25;;;2.70;;
19889;SDS011;10107;51.198;6.824;2022-07-29T05:05:46;7.05;;;2.90;;
19889;SDS011;10107;51.198;6.824;2022-07-29T05:09:48;2.83;;;2.15;;
19889;SDS011;10107;51.198;6.824;2022-07-29T05:13:50;5.82;;;2.42;;
19889;SDS011;10107;51.198;6.824;2022-07-29T05:17:53;5.72;;;2.70;;
19889;SDS011;10107;51.198;6.824;2022-07-29T05:21:55;5.83;;;3.07;;
19889;SDS011;10107;51.198;6.824;2022-07-29T05:25:56;6.20;;;2.60;;
19889;SDS011;10107;51.198;6.824;2022-07-29T05:29:58;4.85;;;2.20;;
19889;SDS011;10107;51.198;6.824;2022-07-29T05:34:01;3.30;;;2.20;;
19889;SDS011;10107;51.198;6.824;2022-07-29T05:38:03;2.90;;;2.00;;
19889;SDS011;10107;51.198;6.824;2022-07-29T05:42:07;2.60;;;1.92;;
19889;SDS011;10107;51.198;6.824;2022-07-29T05:46:09;4.00;;;2.38;;
19889;SDS011;10107;51.198;6.824;2022-07-29T05:50:13;3.65;;;2.40;;
19889;SDS011;10107;51.198;6.824;2022-07-29T05:54:14;4.30;;;2.63;;
19889;SDS011;10107;51.198;6.824;2022-07-29T05:58:16;4.63;;;1.95;;
19889;SDS011;10107;51.198;6.824;2022-07-29T06:02:18;2.40;;;2.00;;
19889;SDS011;10107;51.198;6.824;2022-07-29T06:06:21;4.10;;;2.17;;
19889;SDS011;10107;51.198;6.824;2022-07-29T06:10:23;2.22;;;1.55;;
19889;SDS011;10107;51.198;6.824;2022-07-29T06:14:25;4.38;;;2.00;;
19889;SDS011;10107;51.198;6.824;2022-07-29T06:18:28;1.70;;;1.23;;
19889;SDS011;10107;51.198;6.824;2022-07-29T06:22:31;3.10;;;1.63;;
19889;SDS011;10107;51.198;6.824;2022-07-29T06:26:33;1.90;;;1.55;;
19889;SDS011;10107;51.198;6.824;2022-07-29T06:30:35;5.15;;;1.80;;
19889;SDS011;10107;51.198;6.824;2022-07-29T06:34:37;1.73;;;1.25;;
19889;SDS011;10107;51.198;6.824;2022-07-29T06:38:40;3.30;;;1.40;;
19889;SDS011;10107;51.198;6.824;2022-07-29T06:42:42;2.95;;;1.58;;
19889;SDS011;10107;51.198;6.824;2022-07-29T06:46:44;2.28;;;1.40;;
19889;SDS011;10107;51.198;6.824;2022-07-29T06:50:47;3.53;;;1.80;;
19889;SDS011;10107;51.198;6.824;2022-07-29T06:54:50;3.17;;;2.10;;
19889;SDS011;10107;51.198;6.824;2022-07-29T06:58:52;2.15;;;1.60;;
19889;SDS011;10107;51.198;6.824;2022-07-29T07:02:54;3.55;;;2.20;;
19889;SDS011;10107;51.198;6.824;2022-07-29T07:06:56;2.70;;;1.63;;
19889;SDS011;10107;51.198;6.824;2022-07-29T07:10:59;2.47;;;1.73;;
19889;SDS011;10107;51.198;6.824;2022-07-29T07:15:01;2.30;;;1.77;;
19889;SDS011;10107;51.198;6.824;2022-07-29T07:19:03;3.05;;;1.60;;
19889;SDS011;10107;51.198;6.824;2022-07-29T07:23:05;1.70;;;1.50;;
19889;SDS011;10107;51.198;6.824;2022-07-29T07:27:08;4.18;;;1.98;;
19889;SDS011;10107;51.198;6.824;2022-07-29T07:31:10;3.65;;;1.83;;
19889;SDS011;10107;51.198;6.824;2022-07-29T07:35:12;3.38;;;2.55;;
19889;SDS011;10107;51.198;6.824;2022-07-29T07:39:14;3.03;;;2.38;;
19889;SDS011;10107;51.198;6.824;2022-07-29T07:43:17;3.03;;;1.88;;
19889;SDS011;10107;51.198;6.824;2022-07-29T07:47:19;4.85;;;2.78;;
19889;SDS011;10107;51.198;6.824;2022-07-29T07:51:21;4.28;;;2.55;;
19889;SDS011;10107;51.198;6.824;2022-07-29T07:55:23;3.00;;;1.88;;
19889;SDS011;10107;51.198;6.824;2022-07-29T07:59:26;4.68;;;2.55;;
19889;SDS011;10107;51.198;6.824;2022-07-29T08:03:29;5.07;;;3.55;;
19889;SDS011;10107;51.198;6.824;2022-07-29T08:07:31;5.82;;;3.00;;
19889;SDS011;10107;51.198;6.824;2022-07-29T08:11:32;4.47;;;2.92;;
19889;SDS011;10107;51.198;6.824;2022-07-29T08:15:36;5.40;;;3.28;;
19889;SDS011;10107;51.198;6.824;2022-07-29T08:19:39;6.00;;;3.60;;
19889;SDS011;10107;51.198;6.824;2022-07-29T08:23:42;4.00;;;2.53;;
19889;SDS011;10107;51.198;6.824;2022-07-29T08:27:49;4.53;;;2.97;;
19889;SDS011;10107;51.198;6.824;2022-07-29T08:31:52;4.55;;;2.60;;
19889;SDS011;10107;51.198;6.824;2022-07-29T08:35:54;2.67;;;1.92;;
19889;SDS011;10107;51.198;6.824;2022-07-29T08:39:56;3.80;;;2.65;;
19889;SDS011;10107;51.198;6.824;2022-07-29T08:43:58;4.80;;;2.47;;
19889;SDS011;10107;51.198;6.824;2022-07-29T08:48:01;4.68;;;3.17;;
19889;SDS011;10107;51.198;6.824;2022-07-29T08:52:04;7.80;;;3.47;;
19889;SDS011;10107;51.198;6.824;2022-07-29T08:56:06;5.05;;;3.15;;
19889;SDS011;10107;51.198;6.824;2022-07-29T09:00:08;5.50;;;3.50;;
19889;SDS011;10107;51.198;6.824;2022-07-29T09:04:12;3.35;;;2.40;;
19889;SDS011;10107;51.198;6.824;2022-07-29T09:08:16;4.03;;;2.67;;
19889;SDS011;10107;51.198;6.824;2022-07-29T09:16:23;4.80;;;2.55;;
19889;SDS011;10107;51.198;6.824;2022-07-29T09:20:26;3.45;;;2.17;;
19889;SDS011;10107;51.198;6.824;2022-07-29T09:24:48;2.88;;;2.05;;
19889;SDS011;10107;51.198;6.824;2022-07-29T09:28:50;4.05;;;2.30;;
19889;SDS011;10107;51.198;6.824;2022-07-29T09:32:55;2.80;;;1.90;;
19889;SDS011;10107;51.198;6.824;2022-07-29T09:37:03;4.68;;;2.40;;
19889;SDS011;10107;51.198;6.824;2022-07-29T09:41:05;3.47;;;2.00;;
19889;SDS011;10107;51.198;6.824;2022-07-29T09:45:08;3.05;;;2.60;;
19889;SDS011;10107;51.198;6.824;2022-07-29T09:49:12;3.53;;;2.22;;
19889;SDS011;10107;51.198;6.824;2022-07-29T09:57:34;3.05;;;1.70;;
19889;SDS011;10107;51.198;6.824;2022-07-29T10:01:36;3.35;;;1.90;;
19889;SDS011;10107;51.198;6.824;2022-07-29T10:05:38;5.70;;;2.05;;
19889;SDS011;10107;51.198;6.824;2022-07-29T10:09:50;3.55;;;2.10;;
19889;SDS011;10107;51.198;6.824;2022-07-29T10:13:54;3.75;;;2.38;;
19889;SDS011;10107;51.198;6.824;2022-07-29T10:17:56;4.72;;;2.35;;
19889;SDS011;10107;51.198;6.824;2022-07-29T10:21:59;2.38;;;2.00;;
19889;SDS011;10107;51.198;6.824;2022-07-29T10:26:04;2.78;;;2.00;;
19889;SDS011;10107;51.198;6.824;2022-07-29T10:30:06;2.10;;;1.77;;
19889;SDS011;10107;51.198;6.824;2022-07-29T10:42:48;2.25;;;1.90;;
19889;SDS011;10107;51.198;6.824;2022-07-29T10:46:53;3.47;;;1.80;;
19889;SDS011;10107;51.198;6.824;2022-07-29T10:50:56;3.95;;;2.67;;
19889;SDS011;10107;51.198;6.824;2022-07-29T10:55:00;4.65;;;2.28;;
19889;SDS011;10107;51.198;6.824;2022-07-29T10:59:25;5.35;;;2.95;;
19889;SDS011;10107;51.198;6.824;2022-07-29T11:03:44;2.30;;;1.90;;
19889;SDS011;10107;51.198;6.824;2022-07-29T11:17:00;4.45;;;2.03;;
19889;SDS011;10107;51.198;6.824;2022-07-29T11:21:07;4.00;;;2.30;;
19889;SDS011;10107;51.198;6.824;2022-07-29T11:25:38;4.55;;;2.40;;
19889;SDS011;10107;51.198;6.824;2022-07-29T11:29:47;6.78;;;2.08;;
19889;SDS011;10107;51.198;6.824;2022-07-29T11:33:54;5.07;;;1.83;;
19889;SDS011;10107;51.198;6.824;2022-07-29T11:42:41;2.72;;;1.55;;
19889;SDS011;10107;51.198;6.824;2022-07-29T11:46:46;3.67;;;1.95;;
19889;SDS011;10107;51.198;6.824;2022-07-29T11:50:51;4.38;;;2.00;;
19889;SDS011;10107;51.198;6.824;2022-07-29T11:54:54;3.65;;;1.95;;
19889;SDS011;10107;51.198;6.824;2022-07-29T11:59:02;5.25;;;1.90;;
19889;SDS011;10107;51.198;6.824;2022-07-29T12:03:06;6.22;;;2.05;;
19889;SDS011;10107;51.198;6.824;2022-07-29T12:07:11;4.38;;;2.10;;
19889;SDS011;10107;51.198;6.824;2022-07-29T12:11:16;5.85;;;2.25;;
19889;SDS011;10107;51.198;6.824;2022-07-29T12:15:20;2.97;;;1.80;;
19889;SDS011;10107;51.198;6.824;2022-07-29T12:19:24;4.53;;;2.33;;
19889;SDS011;10107;51.198;6.824;2022-07-29T12:23:27;5.43;;;2.70;;
19889;SDS011;10107;51.198;6.824;2022-07-29T12:27:29;4.90;;;2.67;;
19889;SDS011;10107;51.198;6.824;2022-07-29T12:31:33;6.43;;;3.10;;
19889;SDS011;10107;51.198;6.824;2022-07-29T12:35:35;6.75;;;2.95;;
19889;SDS011;10107;51.198;6.824;2022-07-29T12:39:39;7.18;;;2.88;;
19889;SDS011;10107;51.198;6.824;2022-07-29T12:43:52;3.85;;;2.35;;
19889;SDS011;10107;51.198;6.824;2022-07-29T12:47:54;6.53;;;2.73;;
19889;SDS011;10107;51.198;6.824;2022-07-29T12:51:56;5.00;;;2.60;;
19889;SDS011;10107;51.198;6.824;2022-07-29T12:56:00;7.10;;;3.10;;
19889;SDS011;10107;51.198;6.824;2022-07-29T13:00:06;6.47;;;3.50;;
19889;SDS011;10107;51.198;6.824;2022-07-29T13:04:10;6.25;;;2.92;;
19889;SDS011;10107;51.198;6.824;2022-07-29T13:08:13;7.93;;;3.65;;
19889;SDS011;10107;51.198;6.824;2022-07-29T13:12:17;5.80;;;3.20;;
19889;SDS011;10107;51.198;6.824;2022-07-29T13:16:21;6.72;;;3.53;;
19889;SDS011;10107;51.198;6.824;2022-07-29T13:20:23;7.10;;;2.90;;
19889;SDS011;10107;51.198;6.824;2022-07-29T13:24:27;5.10;;;2.50;;
19889;SDS011;10107;51.198;6.824;2022-07-29T13:28:30;4.18;;;2.42;;
19889;SDS011;10107;51.198;6.824;2022-07-29T13:36:34;5.20;;;2.85;;
19889;SDS011;10107;51.198;6.824;2022-07-29T13:40:36;5.53;;;2.72;;
19889;SDS011;10107;51.198;6.824;2022-07-29T13:44:39;5.53;;;2.60;;
19889;SDS011;10107;51.198;6.824;2022-07-29T13:48:41;4.47;;;2.85;;
19889;SDS011;10107;51.198;6.824;2022-07-29T13:52:44;3.35;;;2.22;;
19889;SDS011;10107;51.198;6.824;2022-07-29T13:56:49;9.45;;;2.97;;
19889;SDS011;10107;51.198;6.824;2022-07-29T14:00:52;3.25;;;2.55;;
19889;SDS011;10107;51.198;6.824;2022-07-29T14:08:56;6.25;;;2.88;;
19889;SDS011;10107;51.198;6.824;2022-07-29T14:12:57;4.97;;;2.95;;
19889;SDS011;10107;51.198;6.824;2022-07-29T14:17:01;8.25;;;3.60;;
19889;SDS011;10107;51.198;6.824;2022-07-29T14:21:03;4.20;;;2.78;;
19889;SDS011;10107;51.198;6.824;2022-07-29T14:25:05;4.75;;;2.22;;
19889;SDS011;10107;51.198;6.824;2022-07-29T14:29:08;6.38;;;2.50;;
19889;SDS011;10107;51.198;6.824;2022-07-29T14:33:14;4.05;;;2.17;;
19889;SDS011;10107;51.198;6.824;2022-07-29T14:37:16;4.68;;;2.72;;
19889;SDS011;10107;51.198;6.824;2022-07-29T14:41:18;5.85;;;3.13;;
19889;SDS011;10107;51.198;6.824;2022-07-29T14:45:19;7.38;;;3.70;;
19889;SDS011;10107;51.198;6.824;2022-07-29T14:49:23;7.95;;;3.60;;
19889;SDS011;10107;51.198;6.824;2022-07-29T14:57:26;4.05;;;2.58;;
19889;SDS011;10107;51.198;6.824;2022-07-29T15:01:29;7.20;;;3.00;;
19889;SDS011;10107;51.198;6.824;2022-07-29T15:05:32;4.88;;;2.83;;
19889;SDS011;10107;51.198;6.824;2022-07-29T15:09:35;6.95;;;3.50;;
19889;SDS011;10107;51.198;6.824;2022-07-29T15:13:37;7.25;;;3.20;;
19889;SDS011;10107;51.198;6.824;2022-07-29T15:17:39;6.70;;;3.00;;
19889;SDS011;10107;51.198;6.824;2022-07-29T15:21:42;4.75;;;3.00;;
19889;SDS011;10107;51.198;6.824;2022-07-29T15:25:44;6.93;;;3.42;;
19889;SDS011;10107;51.198;6.824;2022-07-29T15:29:46;5.60;;;3.30;;
19889;SDS011;10107;51.198;6.824;2022-07-29T15:33:48;5.95;;;3.00;;
19889;SDS011;10107;51.198;6.824;2022-07-29T15:37:52;4.30;;;2.35;;
19889;SDS011;10107;51.198;6.824;2022-07-29T15:41:54;5.20;;;2.63;;
19889;SDS011;10107;51.198;6.824;2022-07-29T15:45:56;4.80;;;2.70;;
19889;SDS011;10107;51.198;6.824;2022-07-29T15:50:15;5.45;;;2.40;;
19889;SDS011;10107;51.198;6.824;2022-07-29T15:54:19;4.77;;;2.60;;
19889;SDS011;10107;51.198;6.824;2022-07-29T15:58:21;5.70;;;3.13;;
19889;SDS011;10107;51.198;6.824;2022-07-29T16:02:23;6.40;;;2.92;;
19889;SDS011;10107;51.198;6.824;2022-07-29T16:06:25;5.78;;;2.78;;
19889;SDS011;10107;51.198;6.824;2022-07-29T16:10:28;4.30;;;2.65;;
19889;SDS011;10107;51.198;6.824;2022-07-29T16:14:30;5.30;;;2.65;;
19889;SDS011;10107;51.198;6.824;2022-07-29T16:18:32;5.60;;;2.40;;
19889;SDS011;10107;51.198;6.824;2022-07-29T16:22:34;5.32;;;2.80;;
19889;SDS011;10107;51.198;6.824;2022-07-29T16:26:37;7.00;;;4.00;;
19889;SDS011;10107;51.198;6.824;2022-07-29T16:30:39;8.38;;;4.18;;
19889;SDS011;10107;51.198;6.824;2022-07-29T16:34:41;6.75;;;3.25;;
19889;SDS011;10107;51.198;6.824;2022-07-29T16:38:43;4.78;;;3.00;;
19889;SDS011;10107;51.198;6.824;2022-07-29T16:42:47;5.95;;;2.67;;
19889;SDS011;10107;51.198;6.824;2022-07-29T16:46:49;4.75;;;2.40;;
19889;SDS011;10107;51.198;6.824;2022-07-29T16:50:51;4.82;;;2.60;;
19889;SDS011;10107;51.198;6.824;2022-07-29T16:54:53;3.70;;;2.15;;
19889;SDS011;10107;51.198;6.824;2022-07-29T16:58:57;4.05;;;2.28;;
19889;SDS011;10107;51.198;6.824;2022-07-29T17:03:01;4.65;;;1.98;;
19889;SDS011;10107;51.198;6.824;2022-07-29T17:07:04;4.75;;;2.35;;
19889;SDS011;10107;51.198;6.824;2022-07-29T17:11:06;2.78;;;1.92;;
19889;SDS011;10107;51.198;6.824;2022-07-29T17:15:10;3.45;;;2.53;;
19889;SDS011;10107;51.198;6.824;2022-07-29T17:19:13;4.05;;;3.20;;
19889;SDS011;10107;51.198;6.824;2022-07-29T17:23:15;3.80;;;2.40;;
19889;SDS011;10107;51.198;6.824;2022-07-29T17:27:16;3.05;;;1.80;;
19889;SDS011;10107;51.198;6.824;2022-07-29T17:31:20;2.67;;;2.00;;
19889;SDS011;10107;51.198;6.824;2022-07-29T17:39:45;3.30;;;2.10;;
19889;SDS011;10107;51.198;6.824;2022-07-29T17:43:56;4.43;;;2.22;;
19889;SDS011;10107;51.198;6.824;2022-07-29T17:48:00;4.22;;;1.98;;
19889;SDS011;10107;51.198;6.824;2022-07-29T17:52:01;2.30;;;2.10;;
19889;SDS011;10107;51.198;6.824;2022-07-29T17:56:04;3.88;;;2.40;;
19889;SDS011;10107;51.198;6.824;2022-07-29T18:00:06;4.00;;;2.47;;
19889;SDS011;10107;51.198;6.824;2022-07-29T18:04:10;4.72;;;2.50;;
19889;SDS011;10107;51.198;6.824;2022-07-29T18:08:12;3.90;;;2.45;;
19889;SDS011;10107;51.198;6.824;2022-07-29T18:12:14;4.05;;;2.20;;
19889;SDS011;10107;51.198;6.824;2022-07-29T18:16:16;2.85;;;2.30;;
19889;SDS011;10107;51.198;6.824;2022-07-29T18:20:20;3.88;;;2.20;;
19889;SDS011;10107;51.198;6.824;2022-07-29T18:24:22;2.53;;;1.92;;
19889;SDS011;10107;51.198;6.824;2022-07-29T18:28:27;3.53;;;1.92;;
19889;SDS011;10107;51.198;6.824;2022-07-29T18:32:29;3.55;;;2.25;;
19889;SDS011;10107;51.198;6.824;2022-07-29T18:36:32;3.08;;;2.28;;
19889;SDS011;10107;51.198;6.824;2022-07-29T18:40:37;3.70;;;2.10;;
19889;SDS011;10107;51.198;6.824;2022-07-29T18:44:44;2.55;;;2.22;;
19889;SDS011;10107;51.198;6.824;2022-07-29T18:48:46;2.72;;;2.20;;
19889;SDS011;10107;51.198;6.824;2022-07-29T18:52:50;4.35;;;2.35;;
19889;SDS011;10107;51.198;6.824;2022-07-29T19:00:54;2.42;;;2.08;;
19889;SDS011;10107;51.198;6.824;2022-07-29T19:04:56;3.88;;;1.88;;
19889;SDS011;10107;51.198;6.824;2022-07-29T19:08:59;2.15;;;1.75;;
19889;SDS011;10107;51.198;6.824;2022-07-29T19:13:01;4.05;;;2.13;;
19889;SDS011;10107;51.198;6.824;2022-07-29T19:17:03;2.70;;;1.92;;
19889;SDS011;10107;51.198;6.824;2022-07-29T19:21:05;2.35;;;2.05;;
19889;SDS011;10107;51.198;6.824;2022-07-29T19:25:08;2.85;;;2.28;;
19889;SDS011;10107;51.198;6.824;2022-07-29T19:29:10;3.15;;;2.13;;
19889;SDS011;10107;51.198;6.824;2022-07-29T19:33:12;2.90;;;2.00;;
19889;SDS011;10107;51.198;6.824;2022-07-29T19:37:17;4.05;;;2.00;;
19889;SDS011;10107;51.198;6.824;2022-07-29T19:41:21;3.30;;;2.03;;
19889;SDS011;10107;51.198;6.824;2022-07-29T19:45:23;3.35;;;2.10;;
19889;SDS011;10107;51.198;6.824;2022-07-29T19:49:26;2.57;;;2.37;;
19889;SDS011;10107;51.198;6.824;2022-07-29T19:53:28;2.92;;;2.45;;
19889;SDS011;10107;51.198;6.824;2022-07-29T19:57:31;4.30;;;2.25;;
19889;SDS011;10107;51.198;6.824;2022-07-29T20:01:34;3.47;;;2.40;;
19889;SDS011;10107;51.198;6.824;2022-07-29T20:05:36;3.70;;;2.30;;
19889;SDS011;10107;51.198;6.824;2022-07-29T20:09:38;3.58;;;2.40;;
19889;SDS011;10107;51.198;6.824;2022-07-29T20:13:41;3.10;;;2.28;;
19889;SDS011;10107;51.198;6.824;2022-07-29T20:17:43;4.18;;;2.47;;
19889;SDS011;10107;51.198;6.824;2022-07-29T20:21:45;4.15;;;2.50;;
19889;SDS011;10107;51.198;6.824;2022-07-29T20:25:47;3.22;;;2.63;;
19889;SDS011;10107;51.198;6.824;2022-07-29T20:29:51;3.47;;;2.40;;
19889;SDS011;10107;51.198;6.824;2022-07-29T20:33:53;4.68;;;2.55;;
19889;SDS011;10107;51.198;6.824;2022-07-29T20:37:55;3.47;;;2.55;;
19889;SDS011;10107;51.198;6.824;2022-07-29T20:41:57;3.78;;;3.03;;
19889;SDS011;10107;51.198;6.824;2022-07-29T20:46:01;4.57;;;3.30;;
19889;SDS011;10107;51.198;6.824;2022-07-29T20:50:03;5.40;;;3.70;;
19889;SDS011;10107;51.198;6.824;2022-07-29T20:54:05;3.97;;;3.30;;
19889;SDS011;10107;51.198;6.824;2022-07-29T20:58:09;4.85;;;3.50;;
19889;SDS011;10107;51.198;6.824;2022-07-29T21:02:13;4.07;;;3.35;;
19889;SDS011;10107;51.198;6.824;2022-07-29T21:06:15;4.88;;;3.15;;
19889;SDS011;10107;51.198;6.824;2022-07-29T21:10:17;4.93;;;3.08;;
19889;SDS011;10107;51.198;6.824;2022-07-29T21:14:18;4.30;;;3.20;;
19889;SDS011;10107;51.198;6.824;2022-07-29T21:18:42;5.05;;;2.97;;
19889;SDS011;10107;51.198;6.824;2022-07-29T21:22:45;3.95;;;3.00;;
19889;SDS011;10107;51.198;6.824;2022-07-29T21:26:47;5.03;;;2.88;;
19889;SDS011;10107;51.198;6.824;2022-07-29T21:30:49;3.33;;;2.95;;
19889;SDS011;10107;51.198;6.824;2022-07-29T21:34:52;4.18;;;3.03;;
19889;SDS011;10107;51.198;6.824;2022-07-29T21:38:54;3.90;;;3.13;;
19889;SDS011;10107;51.198;6.824;2022-07-29T21:42:57;3.50;;;3.13;;
19889;SDS011;10107;51.198;6.824;2022-07-29T21:46:58;3.53;;;3.00;;
19889;SDS011;10107;51.198;6.824;2022-07-29T21:51:02;4.53;;;3.10;;
19889;SDS011;10107;51.198;6.824;2022-07-29T21:55:05;3.88;;;2.95;;
19889;SDS011;10107;51.198;6.824;2022-07-29T21:59:08;3.83;;;3.10;;
19889;SDS011;10107;51.198;6.824;2022-07-29T22:03:10;4.75;;;3.20;;
19889;SDS011;10107;51.198;6.824;2022-07-29T22:07:13;4.20;;;3.30;;
19889;SDS011;10107;51.198;6.824;2022-07-29T22:11:15;3.80;;;3.10;;
19889;SDS011;10107;51.198;6.824;2022-07-29T22:15:16;5.18;;;3.42;;
19889;SDS011;10107;51.198;6.824;2022-07-29T22:19:19;3.42;;;3.13;;
19889;SDS011;10107;51.198;6.824;2022-07-29T22:23:22;4.63;;;3.53;;
19889;SDS011;10107;51.198;6.824;2022-07-29T22:27:24;4.10;;;3.70;;
19889;SDS011;10107;51.198;6.824;2022-07-29T22:31:26;6.22;;;3.38;;
19889;SDS011;10107;51.198;6.824;2022-07-29T22:35:28;5.18;;;3.85;;
19889;SDS011;10107;51.198;6.824;2022-07-29T22:39:31;4.68;;;4.10;;
19889;SDS011;10107;51.198;6.824;2022-07-29T22:43:34;5.20;;;3.67;;
19889;SDS011;10107;51.198;6.824;2022-07-29T22:47:39;4.55;;;3.15;;
19889;SDS011;10107;51.198;6.824;2022-07-29T22:51:40;4.00;;;3.40;;
19889;SDS011;10107;51.198;6.824;2022-07-29T22:55:44;4.10;;;3.70;;
19889;SDS011;10107;51.198;6.824;2022-07-29T22:59:46;3.92;;;3.25;;
19889;SDS011;10107;51.198;6.824;2022-07-29T23:03:48;4.65;;;3.65;;
19889;SDS011;10107;51.198;6.824;2022-07-29T23:07:50;5.28;;;3.63;;
19889;SDS011;10107;51.198;6.824;2022-07-29T23:11:53;6.30;;;3.92;;
19889;SDS011;10107;51.198;6.824;2022-07-29T23:15:55;5.28;;;4.50;;
19889;SDS011;10107;51.198;6.824;2022-07-29T23:19:57;5.47;;;4.60;;
19889;SDS011;10107;51.198;6.824;2022-07-29T23:23:59;6.15;;;4.78;;
19889;SDS011;10107;51.198;6.824;2022-07-29T23:28:02;5.75;;;4.18;;
19889;SDS011;10107;51.198;6.824;2022-07-29T23:36:07;5.07;;;4.05;;
19889;SDS011;10107;51.198;6.824;2022-07-29T23:40:09;4.53;;;3.53;;
19889;SDS011;10107;51.198;6.824;2022-07-29T23:44:13;5.20;;;4.40;;
19889;SDS011;10107;51.198;6.824;2022-07-29T23:48:15;5.45;;;4.65;;
19889;SDS011;10107;51.198;6.824;2022-07-29T23:52:17;5.05;;;4.55;;
19889;SDS011;10107;51.198;6.824;2022-07-29T23:56:19;5.80;;;4.38;;
